KMCI/MCI METAR and TAF weather

Enter ICAO airport designator
Station Type Date Time Source
KMCI METAR 2020/07/02 16:53 UTC NOAA

KMCI 021653Z 06008KT 10SM SCT020 28/22 A3002 RMK AO2 SLP153 T02780222


Station Type Date Time Source
KMCI Decoded METAR 2020/07/02 16:53 UTC NOAA

KANSAS CITY INTERNATIONAL AIRPORT, MO, United States (KMCI) 39-18N 94-44W 320M
Jul 02, 2020 - 12:53 PM EDT / 2020.07.02 1653 UTC
Wind: from the ENE (060 degrees) at 9 MPH (8 KT):0
Visibility: 10 mile(s):0
Sky conditions: partly cloudy
Temperature: 82.0 F (27.8 C)
Dew Point: 72.0 F (22.2 C)
Relative Humidity: 71%
Pressure (altimeter): 30.02 in. Hg (1016 hPa)
ob: KMCI 021653Z 06008KT 10SM SCT020 28/22 A3002 RMK AO2 SLP153 T02780222
cycle: 17

Station Type Date Time Source
KMCI TAF 2020/07/02 18:22 UTC NOAA

TAF KMCI 021720Z 0218/0318 06008KT P6SM SCT020

Example: see airport list